Time;durP1;ratioP1;P1;durP2;ratioP2;P2;SDS_P1;SDS_P2;PMS_P1;PMS_P2;Temp;Humidity;BMP_temperature;BMP_pressure;BME280_temperature;BME280_humidity;BME280_pressure;Samples;Min_cycle;Max_cycle;Signal;HPM_P1;HPM_P2
2022/05/28 00:02:02;;;;;;;41.97;9.45;;;;;;;29.05;60.69;96923.16;4853165;29;20123;-71
2022/05/28 00:04:45;;;;;;;37.72;10.02;;;;;;;29.01;61.12;96924.56;4852164;29;20050;-69
2022/05/28 00:07:34;;;;;;;35.20;9.55;;;;;;;29.06;61.25;96924.75;4855742;29;20107;-69
2022/05/28 00:10:18;;;;;;;56.38;10.48;;;;;;;29.01;60.49;96926.41;4852454;29;20057;-69
2022/05/28 00:13:08;;;;;;;57.10;10.80;;;;;;;29.12;57.97;96949.66;4850515;29;20104;-69
2022/05/28 00:15:56;;;;;;;60.83;11.02;;;;;;;29.19;57.07;96961.91;4852645;29;20053;-69
2022/05/28 00:18:45;;;;;;;59.88;10.93;;;;;;;29.22;58.53;96974.72;4851876;29;20819;-69
2022/05/28 00:21:28;;;;;;;40.90;10.25;;;;;;;29.21;61.27;96996.97;4852052;29;20149;-68
2022/05/28 00:28:02;;;;;;;53.53;10.02;;;;;;;29.08;60.23;97060.66;4834298;29;20473;-69
2022/05/28 00:30:51;;;;;;;60.85;13.48;;;;;;;29.02;61.59;97119.81;4836226;29;20672;-69
2022/05/28 00:33:34;;;;;;;71.47;19.98;;;;;;;28.98;60.65;97129.16;4851950;29;20458;-68
2022/05/28 00:36:22;;;;;;;71.90;19.52;;;;;;;29.01;61.52;97142.03;4851427;29;20072;-68
2022/05/28 00:39:04;;;;;;;72.65;18.65;;;;;;;29.10;57.58;97138.19;4855349;29;20062;-69
2022/05/28 00:41:55;;;;;;;61.83;17.58;;;;;;;29.21;58.24;97126.97;4851398;29;20160;-68
2022/05/28 00:44:37;;;;;;;58.25;14.45;;;;;;;29.34;56.24;97130.69;4852301;29;20197;-68
2022/05/28 00:47:26;;;;;;;56.53;13.50;;;;;;;29.47;54.51;97144.00;4853173;29;20049;-68
2022/05/28 00:50:10;;;;;;;50.05;13.23;;;;;;;29.43;57.56;97159.50;4851608;29;20073;-68
2022/05/28 00:53:00;;;;;;;53.70;15.38;;;;;;;29.54;54.65;97158.91;4851556;29;20057;-68
2022/05/28 00:55:49;;;;;;;61.55;14.15;;;;;;;29.58;55.72;97160.13;4850865;29;20045;-68
2022/05/28 00:58:33;;;;;;;58.22;13.25;;;;;;;29.62;53.75;97171.16;4852444;29;20057;-68
2022/05/28 01:01:26;;;;;;;61.50;14.88;;;;;;;29.60;56.01;97181.19;4851011;29;20126;-68
2022/05/28 01:04:19;;;;;;;55.92;11.63;;;;;;;29.67;55.65;97176.69;4854602;29;20391;-69
2022/05/28 01:07:15;;;;;;;50.72;13.23;;;;;;;29.68;53.60;97176.50;4850243;29;20134;-69
2022/05/28 01:10:03;;;;;;;51.28;13.38;;;;;;;29.68;54.24;97181.81;4851281;29;20657;-69
2022/05/28 01:13:10;;;;;;;59.42;12.77;;;;;;;29.74;51.67;97203.25;4850024;29;20543;-69
2022/05/28 01:16:09;;;;;;;40.83;10.45;;;;;;;29.83;53.36;97212.66;4852330;29;20049;-69
2022/05/28 01:19:30;;;;;;;44.50;9.27;;;;;;;29.79;50.14;97233.47;4851750;29;20076;-68
2022/05/28 01:22:52;;;;;;;42.95;8.57;;;;;;;29.87;50.18;97241.25;4851698;29;20526;-69
2022/05/28 01:25:47;;;;;;;30.55;8.60;;;;;;;29.80;51.27;97235.09;4852182;29;20054;-69
2022/05/28 01:28:43;;;;;;;44.78;7.10;;;;;;;29.81;49.69;97234.09;4853271;29;20148;-69
2022/05/28 01:31:27;;;;;;;51.03;8.55;;;;;;;29.87;51.48;97240.41;4854856;29;20739;-69
2022/05/28 01:34:19;;;;;;;56.75;7.95;;;;;;;29.88;50.81;97226.94;4853694;29;20053;-69
2022/05/28 01:37:02;;;;;;;36.20;7.30;;;;;;;29.86;50.26;97222.84;4855601;29;20045;-69
2022/05/28 01:39:55;;;;;;;48.95;8.82;;;;;;;29.94;49.02;97220.84;4853595;29;20134;-69
2022/05/28 01:42:39;;;;;;;40.92;9.18;;;;;;;29.96;50.59;97213.50;4854256;29;20045;-69
2022/05/28 01:45:31;;;;;;;32.80;6.95;;;;;;;29.92;49.47;97220.22;4854998;29;20061;-69
2022/05/28 01:48:24;;;;;;;42.85;8.63;;;;;;;30.12;48.34;97227.38;4851630;29;20927;-69
2022/05/28 01:51:15;;;;;;;41.22;7.15;;;;;;;30.22;48.80;97230.47;4846893;29;20050;-69
2022/05/28 01:54:11;;;;;;;40.17;7.53;;;;;;;30.20;50.60;97240.47;4846029;29;20132;-69
2022/05/28 01:57:01;;;;;;;28.30;7.67;;;;;;;30.22;49.38;97235.78;4848083;29;20050;-69
2022/05/28 01:59:43;;;;;;;37.45;7.82;;;;;;;30.18;52.89;97231.88;4850209;29;20530;-69
2022/05/28 02:02:31;;;;;;;34.92;8.23;;;;;;;30.04;51.14;97231.88;4855306;29;20163;-69
2022/05/28 02:05:16;;;;;;;31.98;8.63;;;;;;;30.00;50.61;97236.00;4853683;29;20049;-69
2022/05/28 02:08:05;;;;;;;43.28;11.07;;;;;;;30.39;51.24;97226.34;4855121;29;20057;-68
2022/05/28 02:10:55;;;;;;;44.55;10.90;;;;;;;30.53;49.73;97235.97;4854925;29;20057;-67
2022/05/28 02:13:59;;;;;;;40.25;11.85;;;;;;;30.81;50.11;97248.97;4852802;29;20060;-68
2022/05/28 02:16:39;;;;;;;37.08;11.05;;;;;;;31.01;50.63;97265.72;4854263;29;20157;-68
2022/05/28 02:19:49;;;;;;;33.50;11.07;;;;;;;31.17;51.37;97259.13;4854819;29;20045;-70
2022/05/28 02:22:38;;;;;;;37.87;11.03;;;;;;;31.22;49.83;97256.66;4842067;29;20061;-68
2022/05/28 02:25:34;;;;;;;32.90;10.68;;;;;;;31.26;49.74;97260.53;4842284;29;20365;-69
2022/05/28 02:28:25;;;;;;;41.75;7.95;;;;;;;31.24;50.93;97267.09;4848650;29;20041;-68
2022/05/28 02:31:22;;;;;;;31.80;9.23;;;;;;;31.25;48.70;97269.53;4860221;29;20051;-68
2022/05/28 02:33:58;;;;;;;34.65;7.10;;;;;;;31.48;49.54;97287.66;4862174;29;20034;-67
2022/05/28 02:36:47;;;;;;;35.03;6.95;;;;;;;31.65;49.37;97280.03;4858995;29;20045;-68
2022/05/28 02:39:29;;;;;;;33.25;9.40;;;;;;;31.74;50.96;97289.41;4857515;29;20148;-69
2022/05/28 02:42:18;;;;;;;35.00;8.50;;;;;;;31.85;50.50;97296.69;4853629;29;20433;-68
2022/05/28 02:45:06;;;;;;;37.95;9.00;;;;;;;31.86;49.16;97290.34;4854399;29;20679;-69
2022/05/28 02:47:56;;;;;;;29.70;8.60;;;;;;;32.09;49.51;97295.91;4854097;29;20057;-69
2022/05/28 02:50:46;;;;;;;45.65;8.98;;;;;;;32.10;47.29;97291.41;4836681;29;20362;-68
2022/05/28 02:53:27;;;;;;;38.88;8.32;;;;;;;32.14;46.85;97287.28;4851291;29;20132;-68
2022/05/28 02:56:18;;;;;;;37.33;7.97;;;;;;;31.99;46.85;97284.13;4853431;29;20049;-69
2022/05/28 02:58:59;;;;;;;30.25;7.40;;;;;;;31.99;46.68;97284.13;4856877;29;20057;-69
2022/05/28 03:01:49;;;;;;;30.88;8.27;;;;;;;32.15;45.87;97287.13;4854021;29;20157;-68
2022/05/28 03:04:30;;;;;;;42.40;9.70;;;;;;;32.50;46.20;97290.09;4853594;29;20049;-67
2022/05/28 03:07:19;;;;;;;37.05;8.98;;;;;;;32.40;46.61;97291.63;4852249;29;20456;-67
2022/05/28 03:10:25;;;;;;;36.65;9.50;;;;;;;32.32;46.26;97294.56;4853826;29;20053;-70
2022/05/28 03:13:13;;;;;;;36.10;9.95;;;;;;;32.51;46.09;97291.72;4852352;29;20510;-69
2022/05/28 03:16:03;;;;;;;28.83;8.02;;;;;;;32.87;46.92;97290.19;4854042;29;20065;-69
2022/05/28 03:18:46;;;;;;;33.95;8.23;;;;;;;32.78;45.02;97297.66;4853518;29;20066;-69
2022/05/28 03:21:34;;;;;;;24.23;8.23;;;;;;;32.79;44.44;97293.97;4853115;29;20041;-69
2022/05/28 03:24:16;;;;;;;21.27;8.30;;;;;;;33.16;45.58;97296.63;4839264;29;20053;-68
2022/05/28 03:27:05;;;;;;;39.58;7.97;;;;;;;33.17;44.18;97291.06;4869070;29;20438;-68
2022/05/28 03:29:54;;;;;;;31.23;8.02;;;;;;;33.35;45.05;97292.94;4853326;29;20158;-68
2022/05/28 03:32:43;;;;;;;37.47;8.48;;;;;;;33.24;45.36;97288.34;4853907;29;20405;-68
2022/05/28 03:35:33;;;;;;;33.97;7.57;;;;;;;33.33;44.38;97271.00;4853351;29;20053;-68
2022/05/28 03:38:22;;;;;;;28.30;6.97;;;;;;;33.56;44.33;97271.09;4853670;29;20049;-68
2022/05/28 03:41:05;;;;;;;30.65;7.97;;;;;;;33.75;44.40;97264.69;4853700;29;20469;-68
2022/05/28 03:43:53;;;;;;;27.27;7.35;;;;;;;33.57;43.70;97259.38;4853303;29;20127;-68
2022/05/28 03:46:36;;;;;;;24.70;6.75;;;;;;;33.54;43.70;97253.66;4852622;29;20062;-68
2022/05/28 03:49:28;;;;;;;25.33;6.38;;;;;;;33.92;42.96;97253.34;4852618;29;20053;-69
2022/05/28 03:52:11;;;;;;;32.72;6.57;;;;;;;34.38;42.74;97256.13;4853756;29;20110;-69
2022/05/28 03:55:00;;;;;;;23.05;5.13;;;;;;;34.03;41.36;97249.88;4853879;29;20118;-69
2022/05/28 03:57:48;;;;;;;17.13;6.03;;;;;;;34.10;41.60;97239.88;4853641;29;20447;-69
2022/05/28 04:00:31;;;;;;;22.40;6.22;;;;;;;34.30;41.21;97235.06;4853135;29;20053;-69
2022/05/28 04:03:19;;;;;;;22.70;6.22;;;;;;;34.68;41.72;97215.03;4852612;29;20452;-69
2022/05/28 04:06:02;;;;;;;35.90;6.35;;;;;;;35.08;41.32;97210.53;4853137;29;20073;-69
2022/05/28 04:08:52;;;;;;;25.48;5.68;;;;;;;34.85;41.41;97202.56;4852928;29;20131;-69
2022/05/28 04:11:35;;;;;;;28.35;7.10;;;;;;;34.60;39.94;97204.69;4853094;29;20121;-68
2022/05/28 04:14:31;;;;;;;15.13;6.88;;;;;;;34.84;41.00;97187.56;4852638;29;20037;-69
2022/05/28 04:17:07;;;;;;;21.40;6.80;;;;;;;35.21;40.86;97188.00;4852897;29;20056;-68
2022/05/28 04:19:55;;;;;;;22.17;5.80;;;;;;;35.52;42.34;97189.44;4853576;29;20038;-68
2022/05/28 04:22:38;;;;;;;20.80;7.07;;;;;;;35.08;41.84;97205.19;4853424;29;20200;-69
2022/05/28 04:25:27;;;;;;;22.27;6.57;;;;;;;35.48;41.72;97207.84;4852198;29;20053;-68
2022/05/28 04:28:16;;;;;;;32.85;7.00;;;;;;;35.12;40.24;97208.22;4851274;29;20143;-69
2022/05/28 04:30:58;;;;;;;26.50;7.47;;;;;;;35.51;42.27;97202.03;4852762;29;20068;-70
2022/05/28 04:33:46;;;;;;;20.83;8.60;;;;;;;35.80;41.27;97202.00;4854756;29;20069;-68
2022/05/28 04:36:28;;;;;;;23.23;8.43;;;;;;;35.89;41.04;97205.91;4856120;29;20057;-70
2022/05/28 04:39:17;;;;;;;22.98;8.45;;;;;;;36.02;40.24;97203.69;4847729;29;20085;-70
2022/05/28 04:42:13;;;;;;;21.23;9.05;;;;;;;36.16;40.89;97204.19;4833875;29;20139;-69
2022/05/28 04:44:49;;;;;;;21.48;9.15;;;;;;;36.09;43.41;97206.22;4850021;29;20815;-69
2022/05/28 04:47:38;;;;;;;;;;;;;;;36.50;41.39;97207.66;4834757;29;20077;-69
2022/05/28 04:50:29;;;;;;;27.88;11.50;;;;;;;36.29;41.57;97192.34;4842965;29;19971;-68
2022/05/28 04:53:11;;;;;;;31.33;14.27;;;;;;;36.45;42.47;97196.88;4852530;29;20066;-68
2022/05/28 04:56:01;;;;;;;38.83;12.55;;;;;;;36.53;43.08;97199.13;4852753;29;20045;-68
2022/05/28 04:58:54;;;;;;;39.30;15.88;;;;;;;36.36;43.68;97198.34;4852882;29;20127;-68
2022/05/28 05:01:36;;;;;;;45.47;17.00;;;;;;;36.49;43.55;97197.97;4856396;29;20057;-69
2022/05/28 05:04:25;;;;;;;35.30;18.08;;;;;;;36.76;46.46;97193.56;4854939;29;20868;-69
2022/05/28 05:07:14;;;;;;;35.35;17.70;;;;;;;37.00;47.48;97196.81;4860332;29;20141;-70
2022/05/28 05:10:03;;;;;;;32.97;19.10;;;;;;;37.02;44.75;97204.63;4856220;29;20105;-68
2022/05/28 05:12:53;;;;;;;37.22;20.42;;;;;;;36.70;47.48;97191.88;4855820;29;20505;-69
2022/05/28 05:15:48;;;;;;;41.90;19.88;;;;;;;37.24;46.71;97197.38;4855880;29;20131;-68
2022/05/28 05:18:24;;;;;;;37.72;21.73;;;;;;;36.56;45.75;97195.94;4858895;29;20127;-68
2022/05/28 05:21:20;;;;;;;43.65;24.55;;;;;;;36.85;46.60;97198.50;4862403;29;20049;-69
2022/05/28 05:23:56;;;;;;;59.42;29.45;;;;;;;36.77;48.06;97195.19;4855430;29;20050;-69
2022/05/28 05:26:45;;;;;;;64.85;25.15;;;;;;;36.91;45.80;97190.25;4843966;29;20041;-70
2022/05/28 05:29:27;;;;;;;53.55;25.17;;;;;;;37.04;50.18;97178.28;4856977;29;20058;-69
2022/05/28 05:32:16;;;;;;;51.45;26.55;;;;;;;37.07;47.46;97178.63;4853705;29;20046;-68
2022/05/28 05:34:58;;;;;;;47.20;26.02;;;;;;;37.32;47.78;97183.47;4852462;29;20105;-68
2022/05/28 05:37:47;;;;;;;72.88;28.02;;;;;;;37.15;49.05;97185.44;4845505;29;20058;-68
2022/05/28 05:40:29;;;;;;;47.42;24.23;;;;;;;37.32;46.87;97183.47;4852743;29;20144;-69
2022/05/28 05:43:18;;;;;;;46.67;25.85;;;;;;;36.75;48.36;97186.56;4861756;29;20178;-69
2022/05/28 05:46:04;;;;;;;54.50;24.25;;;;;;;37.10;49.61;97186.19;4860634;29;20057;-69
2022/05/28 05:48:52;;;;;;;46.90;25.67;;;;;;;36.71;48.89;97187.31;4839836;29;20053;-69
2022/05/28 05:51:34;;;;;;;52.22;25.75;;;;;;;36.88;49.96;97184.59;4855919;29;20050;-69
2022/05/28 05:54:26;;;;;;;44.97;23.85;;;;;;;37.29;49.01;97175.91;4862049;29;20138;-67
2022/05/28 05:57:16;;;;;;;38.88;22.48;;;;;;;36.74;48.50;97176.06;4855524;29;20094;-68
2022/05/28 05:59:58;;;;;;;43.45;23.20;;;;;;;36.02;51.48;97174.19;4848730;29;20167;-68
2022/05/28 06:02:47;;;;;;;54.67;25.20;;;;;;;36.09;52.31;97173.22;4850385;29;20714;-67
2022/05/28 06:05:29;;;;;;;47.45;24.38;;;;;;;36.74;59.46;97168.81;4851718;29;20053;-68
2022/05/28 06:08:19;;;;;;;44.97;24.85;;;;;;;36.95;52.58;97161.84;4836558;29;20060;-68
2022/05/28 06:11:01;;;;;;;47.58;19.33;;;;;;;36.82;49.81;97162.22;4848278;29;20410;-67
2022/05/28 06:13:49;;;;;;;33.92;16.42;;;;;;;36.83;47.90;97168.38;4854841;29;20057;-68
2022/05/28 06:16:39;;;;;;;38.88;19.20;;;;;;;36.96;48.26;97157.28;4838053;29;20415;-67
2022/05/28 06:19:27;;;;;;;36.85;19.90;;;;;;;37.04;50.04;97154.13;4852184;29;20057;-68
2022/05/28 06:22:16;;;;;;;42.88;20.13;;;;;;;37.03;48.64;97150.66;4850812;29;20053;-69
2022/05/28 06:25:06;;;;;;;35.20;19.40;;;;;;;36.97;51.24;97153.50;4838812;29;20517;-67
2022/05/28 06:27:49;;;;;;;45.83;19.50;;;;;;;36.79;46.28;97152.78;4851631;29;20206;-67
2022/05/28 06:30:40;;;;;;;42.33;19.67;;;;;;;36.96;48.51;97155.38;4852659;29;20064;-66
2022/05/28 06:33:24;;;;;;;53.78;20.90;;;;;;;36.87;47.21;97148.84;4851035;29;20053;-67
2022/05/28 06:36:16;;;;;;;49.42;21.58;;;;;;;37.07;51.29;97149.06;4851074;29;20060;-65
2022/05/28 06:38:59;;;;;;;47.22;19.02;;;;;;;37.15;44.71;97150.53;4850930;29;20057;-67
2022/05/28 06:41:48;;;;;;;46.45;19.45;;;;;;;37.20;45.71;97150.56;4851520;29;20089;-67
2022/05/28 06:44:37;;;;;;;54.28;21.65;;;;;;;37.21;45.97;97152.19;4851718;29;20234;-67
2022/05/28 06:47:26;;;;;;;47.22;19.20;;;;;;;37.45;47.83;97150.81;4851947;29;20057;-67
2022/05/28 06:53:17;;;;;;;45.75;18.95;;;;;;;37.13;46.72;97155.31;4852353;29;20073;-65
2022/05/28 06:55:59;;;;;;;;;;;;;;;37.41;49.69;97155.09;4824865;29;20090;-68
2022/05/28 06:58:50;;;;;;;45.20;20.48;;;;;;;37.47;48.95;97147.88;4852398;29;19931;-68
2022/05/28 07:01:45;;;;;;;43.42;18.00;;;;;;;37.41;46.37;97155.09;4852243;29;20041;-68
2022/05/28 07:04:21;;;;;;;44.90;17.63;;;;;;;37.53;45.58;97147.66;4851306;29;20053;-68
2022/05/28 07:07:09;;;;;;;53.17;17.75;;;;;;;37.55;44.72;97150.91;4852797;29;20156;-69
2022/05/28 07:09:51;;;;;;;49.05;17.67;;;;;;;37.62;45.54;97144.53;4850123;29;20065;-69
2022/05/28 07:12:40;;;;;;;47.47;19.95;;;;;;;37.62;48.63;97149.91;4850582;29;20777;-68
2022/05/28 07:15:31;;;;;;;44.40;17.65;;;;;;;37.69;48.94;97145.94;4828670;29;20045;-68
2022/05/28 07:18:13;;;;;;;31.05;17.23;;;;;;;37.70;47.94;97136.81;4849932;29;20148;-68
2022/05/28 07:21:03;;;;;;;40.25;17.45;;;;;;;37.38;45.47;97142.16;4852716;29;20136;-69
2022/05/28 07:23:45;;;;;;;49.72;19.75;;;;;;;37.41;49.15;97138.16;4835291;29;20133;-67
2022/05/28 07:26:34;;;;;;;48.97;18.30;;;;;;;37.65;48.57;97135.97;4850578;29;20164;-67
2022/05/28 07:29:23;;;;;;;41.08;16.90;;;;;;;37.69;47.03;97134.38;4851132;29;20077;-65
2022/05/28 07:32:13;;;;;;;44.38;17.17;;;;;;;37.42;45.71;97126.34;4850948;29;20464;-67
2022/05/28 07:35:09;;;;;;;41.58;18.23;;;;;;;37.51;45.86;97131.00;4851671;29;20049;-67
2022/05/28 07:37:44;;;;;;;50.20;17.95;;;;;;;37.71;47.04;97116.13;4856069;29;20113;-67
2022/05/28 07:40:34;;;;;;;49.22;17.55;;;;;;;37.80;48.15;97122.66;4851130;29;20045;-67
2022/05/28 07:43:16;;;;;;;;;;;;;;;37.75;46.24;97111.84;4851704;29;20076;-68
2022/05/28 07:46:12;;;;;;;46.92;16.48;;;;;;;37.83;47.64;97106.00;4851487;29;19993;-68
2022/05/28 07:48:56;;;;;;;51.13;15.25;;;;;;;37.79;44.44;97107.56;4851733;29;20045;-67
2022/05/28 07:51:47;;;;;;;46.67;15.57;;;;;;;37.77;45.62;97105.13;4851624;29;20062;-66
2022/05/28 07:54:35;;;;;;;40.45;14.43;;;;;;;37.77;42.82;97102.44;4851760;29;20480;-66
2022/05/28 07:57:30;;;;;;;41.95;13.90;;;;;;;37.81;44.11;97105.44;4852152;29;20046;-67
2022/05/28 08:00:07;;;;;;;33.85;14.50;;;;;;;37.80;44.49;97104.63;4852508;29;20041;-68
2022/05/28 08:02:55;;;;;;;;;;;;;;;37.89;43.04;97102.28;4855274;29;20088;-66
2022/05/28 08:05:38;;;;;;;37.97;11.98;;;;;;;37.79;40.84;97102.19;4857805;29;19928;-67
2022/05/28 08:08:35;;;;;;;36.33;13.18;;;;;;;37.80;43.14;97093.88;4855898;29;20064;-66
2022/05/28 08:11:24;;;;;;;37.03;13.07;;;;;;;37.75;43.72;97082.28;4857279;29;20122;-67
2022/05/28 08:14:12;;;;;;;47.47;14.68;;;;;;;37.86;41.20;97081.25;4855786;29;20584;-66
2022/05/28 08:16:54;;;;;;;34.90;13.52;;;;;;;37.82;42.58;97085.56;4853745;29;20440;-66
2022/05/28 08:19:50;;;;;;;43.55;13.73;;;;;;;37.54;42.18;97095.53;4852241;29;20053;-67
2022/05/28 08:25:34;;;;;;;42.83;15.20;;;;;;;37.29;43.62;97073.81;4848437;29;20134;-67
2022/05/28 08:28:18;;;;;;;43.45;13.63;;;;;;;37.17;43.04;97070.50;4832462;29;20110;-67
2022/05/28 08:31:07;;;;;;;44.30;13.25;;;;;;;37.11;42.44;97071.47;4855244;29;20136;-67
2022/05/28 08:33:49;;;;;;;39.97;14.73;;;;;;;37.02;42.87;97059.56;4846535;29;20081;-66
2022/05/28 08:36:38;;;;;;;39.15;13.98;;;;;;;37.04;44.76;97060.91;4848114;29;20137;-67
2022/05/28 08:39:22;;;;;;;38.00;14.90;;;;;;;37.07;44.43;97052.38;4852206;29;20071;-67
2022/05/28 08:42:14;;;;;;;40.88;14.90;;;;;;;37.14;43.14;97052.19;4853430;29;20138;-67
2022/05/28 08:44:57;;;;;;;38.72;13.98;;;;;;;37.12;44.60;97055.09;4852407;29;20748;-67
2022/05/28 08:47:48;;;;;;;39.80;14.07;;;;;;;37.07;44.30;97057.75;4839286;29;20081;-64
2022/05/28 08:50:32;;;;;;;42.53;13.30;;;;;;;37.10;47.46;97046.50;4850888;29;20061;-65
2022/05/28 08:53:35;;;;;;;37.08;13.48;;;;;;;36.95;45.80;97049.03;4852918;29;20046;-68
2022/05/28 08:56:21;;;;;;;47.53;13.45;;;;;;;37.06;45.30;97048.06;4852337;29;20062;-67
2022/05/28 08:59:26;;;;;;;44.13;14.95;;;;;;;37.17;43.80;97040.94;4852708;29;20053;-68
2022/05/28 09:02:25;;;;;;;31.25;12.23;;;;;;;37.20;44.78;97036.94;4855079;29;20057;-67
2022/05/28 09:05:18;;;;;;;44.67;13.48;;;;;;;37.28;44.57;97036.47;4852339;29;20487;-68
2022/05/28 09:08:11;;;;;;;47.35;13.80;;;;;;;37.34;44.70;97035.44;4852110;29;20056;-67
2022/05/28 09:11:01;;;;;;;53.90;13.90;;;;;;;37.47;47.09;97024.22;4852609;29;20033;-68
2022/05/28 09:13:56;;;;;;;45.88;14.50;;;;;;;37.19;41.68;97025.38;4851902;29;20430;-68
2022/05/28 09:16:52;;;;;;;40.00;13.25;;;;;;;37.11;42.97;97025.81;4851857;29;20049;-75
2022/05/28 09:19:44;;;;;;;41.30;13.98;;;;;;;37.01;44.87;97014.97;4847338;29;20050;-69
2022/05/28 09:22:29;;;;;;;51.25;14.38;;;;;;;36.72;45.98;97009.03;4831847;29;20860;-69
2022/05/28 09:25:22;;;;;;;41.20;12.13;;;;;;;36.88;44.96;97005.44;4853535;29;20057;-68
2022/05/28 09:28:41;;;;;;;40.40;13.50;;;;;;;37.11;43.28;97005.13;4851840;29;20060;-69
2022/05/28 09:31:35;;;;;;;38.42;11.40;;;;;;;37.11;42.77;96994.38;4853250;29;20134;-71
2022/05/28 09:34:44;;;;;;;37.30;11.38;;;;;;;37.29;42.89;96979.75;4850818;29;20141;-71
2022/05/28 09:38:00;;;;;;;32.22;10.77;;;;;;;37.14;42.90;96968.91;4851086;29;20386;-70
2022/05/28 09:40:58;;;;;;;36.88;11.23;;;;;;;37.01;46.38;96959.38;4850895;29;20136;-68
2022/05/28 09:44:14;;;;;;;45.45;10.35;;;;;;;37.09;42.70;96963.47;4851253;29;20061;-70
2022/05/28 09:47:07;;;;;;;31.35;10.65;;;;;;;36.85;46.19;96948.78;4851655;29;20077;-69
2022/05/28 09:50:04;;;;;;;28.73;11.25;;;;;;;36.69;45.90;96937.91;4855754;29;20061;-69
2022/05/28 09:56:27;;;;;;;36.35;9.73;;;;;;;36.77;44.08;96918.63;4855263;29;20153;-69
2022/05/28 09:59:35;;;;;;;35.53;10.23;;;;;;;37.00;42.30;96919.34;4855065;29;20395;-70
2022/05/28 10:02:30;;;;;;;31.13;10.07;;;;;;;36.84;41.42;96913.06;4854467;29;20239;-69
2022/05/28 10:05:26;;;;;;;35.03;9.48;;;;;;;36.87;44.28;96907.19;4854003;29;20240;-69
2022/05/28 10:08:14;;;;;;;41.97;10.02;;;;;;;36.86;44.57;96910.13;4836563;29;20061;-69
2022/05/28 10:11:12;;;;;;;32.15;8.50;;;;;;;36.66;46.13;96897.28;4855120;29;20057;-69
2022/05/28 10:13:53;;;;;;;32.53;9.68;;;;;;;36.58;45.62;96898.56;4853917;29;20166;-69
2022/05/28 10:16:46;;;;;;;25.65;8.65;;;;;;;36.45;47.10;96901.69;4854536;29;20644;-70
2022/05/28 10:19:47;;;;;;;47.33;10.05;;;;;;;36.51;45.96;96897.16;4853367;29;20144;-70
2022/05/28 10:22:38;;;;;;;37.50;8.80;;;;;;;36.41;47.80;96892.50;4853140;29;20726;-70
2022/05/28 10:25:32;;;;;;;36.40;9.05;;;;;;;36.42;45.76;96894.94;4854257;29;20070;-69
2022/05/28 10:28:43;;;;;;;32.10;10.10;;;;;;;36.89;42.02;96914.94;4855629;29;20136;-70
2022/05/28 10:31:41;;;;;;;49.42;9.38;;;;;;;36.84;42.63;96907.69;4856567;29;20111;-68
2022/05/28 10:34:38;;;;;;;38.88;10.15;;;;;;;36.71;44.78;96908.94;4838570;29;20070;-70
2022/05/28 10:37:24;;;;;;;31.90;8.45;;;;;;;36.49;47.22;96918.88;4859094;29;20065;-69
2022/05/28 10:40:26;;;;;;;44.80;9.75;;;;;;;37.25;41.09;96924.13;4860590;29;20061;-68
2022/05/28 10:43:09;;;;;;;36.03;8.88;;;;;;;36.92;41.96;96907.19;4863428;29;20124;-68
2022/05/28 10:46:12;;;;;;;45.25;9.30;;;;;;;36.80;43.87;96907.38;4841353;29;20144;-70
2022/05/28 10:49:11;;;;;;;29.23;8.50;;;;;;;36.69;43.99;96899.50;4843724;29;20053;-70
2022/05/28 10:52:24;;;;;;;38.15;10.13;;;;;;;36.92;44.04;96901.03;4856480;29;20097;-70
2022/05/28 10:55:15;;;;;;;41.60;9.83;;;;;;;36.91;42.04;96897.53;4859683;29;20114;-70
2022/05/28 10:58:09;;;;;;;41.47;9.73;;;;;;;36.84;42.49;96896.94;4838829;29;20289;-70
2022/05/28 11:01:09;;;;;;;48.65;7.93;;;;;;;36.90;41.71;96893.22;4854498;29;20712;-70
2022/05/28 11:04:04;;;;;;;53.10;9.52;;;;;;;36.96;42.00;96892.19;4854594;29;20045;-70
2022/05/28 11:07:02;;;;;;;35.88;7.30;;;;;;;36.84;44.15;96885.38;4853582;29;20065;-68
2022/05/28 11:10:12;;;;;;;49.88;8.45;;;;;;;36.92;43.16;96887.59;4854215;29;20128;-69
2022/05/28 11:13:14;;;;;;;37.92;6.53;;;;;;;36.67;42.35;96886.34;4854019;29;20045;-69
2022/05/28 11:16:29;;;;;;;60.50;7.13;;;;;;;36.55;43.08;96909.03;4851738;29;20424;-68
2022/05/28 11:19:30;;;;;;;96.05;11.73;;;;;;;35.83;45.27;96903.94;4844229;29;20309;-69
2022/05/28 11:22:49;;;;;;;99.80;7.82;;;;;;;35.64;46.88;96908.75;4832043;29;20053;-67
2022/05/28 11:26:25;;;;;;;87.78;11.75;;;;;;;35.20;46.97;96913.22;4837001;29;20056;-69
2022/05/28 11:29:17;;;;;;;75.32;9.18;;;;;;;34.94;48.51;96925.41;4849855;29;20057;-68
2022/05/28 11:32:14;;;;;;;71.97;7.38;;;;;;;34.49;52.51;96928.91;4845369;29;20062;-69
2022/05/28 11:35:09;;;;;;;59.28;7.30;;;;;;;34.18;51.22;96935.53;4852563;29;20045;-68
2022/05/28 11:38:13;;;;;;;38.50;5.20;;;;;;;33.69;51.06;96930.75;4850039;29;20633;-68
2022/05/28 11:41:21;;;;;;;35.60;4.97;;;;;;;33.50;51.36;96932.78;4848210;29;20561;-68
2022/05/28 11:44:10;;;;;;;31.35;6.38;;;;;;;33.47;50.35;96935.06;4848861;29;20148;-68
2022/05/28 11:46:59;;;;;;;32.20;4.40;;;;;;;33.34;51.06;96936.16;4850725;29;20053;-68
2022/05/28 11:53:13;;;;;;;22.73;3.85;;;;;;;33.32;51.27;96939.03;4850185;29;20140;-69
2022/05/28 11:56:13;;;;;;;23.13;3.60;;;;;;;33.25;49.93;96946.38;4849290;29;20061;-69
2022/05/28 11:59:11;;;;;;;28.63;3.70;;;;;;;33.14;50.00;96954.31;4849816;29;20068;-68
2022/05/28 12:01:58;;;;;;;17.08;3.80;;;;;;;33.16;50.73;96973.59;4850394;29;20049;-67
2022/05/28 12:04:47;;;;;;;22.25;3.47;;;;;;;33.09;53.83;97003.06;4850172;29;20057;-68
2022/05/28 12:07:43;;;;;;;18.55;3.40;;;;;;;33.03;48.84;97034.19;4852841;29;20057;-68
2022/05/28 12:10:47;;;;;;;24.17;3.28;;;;;;;32.82;49.43;97037.34;4853092;29;20136;-68
2022/05/28 12:13:57;;;;;;;15.07;3.25;;;;;;;32.76;48.59;97032.91;4851682;29;20049;-69
2022/05/28 12:17:02;;;;;;;18.33;2.60;;;;;;;32.85;48.05;97022.75;4832925;29;20098;-68
2022/05/28 12:19:55;;;;;;;18.98;3.55;;;;;;;32.55;48.77;97038.72;4853186;29;20122;-69
2022/05/28 12:22:57;;;;;;;14.70;2.83;;;;;;;32.62;48.46;97055.47;4852475;29;20566;-68
2022/05/28 12:25:45;;;;;;;21.85;3.72;;;;;;;32.58;49.07;97052.41;4840766;29;20150;-66
2022/05/28 12:28:55;;;;;;;22.00;2.83;;;;;;;32.43;49.48;97048.50;4833092;29;20826;-67
2022/05/28 12:31:31;;;;;;;17.45;3.88;;;;;;;32.22;50.61;97044.47;4819217;29;20085;-68
2022/05/28 12:34:35;;;;;;;14.70;2.95;;;;;;;32.10;50.52;97036.34;4814824;29;20111;-68
2022/05/28 12:37:18;;;;;;;16.08;2.58;;;;;;;31.88;50.83;97035.19;4815872;29;20069;-67
2022/05/28 12:40:42;;;;;;;19.83;3.80;;;;;;;31.86;50.93;97045.22;4816396;29;20051;-68
2022/05/28 12:43:32;;;;;;;29.63;3.50;;;;;;;31.82;51.22;97068.84;4813646;29;20058;-68
2022/05/28 12:46:42;;;;;;;16.40;3.45;;;;;;;31.90;52.41;97078.41;4818706;29;20842;-68
2022/05/28 12:49:28;;;;;;;24.65;3.65;;;;;;;31.84;51.24;97079.28;4811485;29;20060;-68
2022/05/28 12:52:30;;;;;;;27.58;3.33;;;;;;;31.61;55.53;97063.09;4816755;29;20053;-67
2022/05/28 12:55:11;;;;;;;27.60;3.72;;;;;;;31.64;54.90;97075.97;4814294;29;20149;-68
2022/05/28 12:58:07;;;;;;;17.27;3.42;;;;;;;31.67;53.93;97083.53;4813782;29;20347;-65
2022/05/28 13:01:06;;;;;;;19.05;3.88;;;;;;;31.57;53.66;97073.34;4811943;29;20066;-66
2022/05/28 13:04:02;;;;;;;32.20;3.75;;;;;;;31.48;53.75;97079.97;4813778;29;20054;-67
2022/05/28 13:06:59;;;;;;;17.63;3.15;;;;;;;31.53;54.31;97093.44;4814569;29;20531;-64
2022/05/28 13:09:55;;;;;;;16.55;2.55;;;;;;;31.54;54.74;97098.56;4816436;29;20078;-66
2022/05/28 13:13:45;;;;;;;16.35;2.70;;;;;;;31.60;55.04;97109.38;4816633;29;20085;-65
2022/05/28 13:16:42;;;;;;;22.75;3.53;;;;;;;31.42;58.40;97116.28;4832717;29;20134;-66
2022/05/28 13:20:18;;;;;;;28.48;4.45;;;;;;;30.83;69.11;97107.81;4821089;29;20070;-68
2022/05/28 13:23:34;;;;;;;40.85;10.02;;;;;;;30.29;76.52;97106.34;4783938;30;20063;-66
2022/05/28 13:27:01;;;;;;;56.03;13.30;;;;;;;29.82;81.35;97113.56;4825092;29;20137;-69
2022/05/28 13:30:19;;;;;;;51.40;13.30;;;;;;;29.68;84.63;97104.81;4855414;29;20053;-68
2022/05/28 13:33:10;;;;;;;62.45;11.95;;;;;;;29.60;85.54;97080.31;4855590;29;20063;-67